Time;durP1;ratioP1;P1;durP2;ratioP2;P2;SDS_P1;SDS_P2;PMS_P1;PMS_P2;Temp;Humidity;BMP_temperature;BMP_pressure;BME280_temperature;BME280_humidity;BME280_pressure;Samples;Min_cycle;Max_cycle;Signal;HPM_P1;HPM_P2
2024/01/29 00:00:03;;;;;;;;;;;5.70;96.60;;;;;;5112300;27;19923;-71
2024/01/29 00:02:30;;;;;;;;;;;5.60;96.60;;;;;;5127369;27;20382;-72
2024/01/29 00:04:56;;;;;;;;;;;5.60;96.50;;;;;;5109092;28;19977;-72
2024/01/29 00:07:21;;;;;;;;;;;5.60;96.60;;;;;;5110489;28;20375;-72
2024/01/29 00:09:47;;;;;;;;;;;5.60;96.60;;;;;;5110214;28;19931;-71
2024/01/29 00:12:12;;;;;;;;;;;5.50;96.60;;;;;;5115176;27;20325;-72
2024/01/29 00:14:38;;;;;;;;;;;5.50;96.60;;;;;;5113232;27;19935;-72
2024/01/29 00:17:03;;;;;;;;;;;5.50;96.60;;;;;;5113154;27;19930;-72
2024/01/29 00:19:29;;;;;;;;;;;5.50;96.60;;;;;;5112961;27;20359;-72
2024/01/29 00:21:54;;;;;;;;;;;5.50;96.70;;;;;;5112559;27;19957;-72
2024/01/29 00:24:20;;;;;;;;;;;5.50;96.70;;;;;;5113242;27;19924;-71
2024/01/29 00:26:45;;;;;;;;;;;5.50;96.80;;;;;;5110772;27;19934;-72
2024/01/29 00:29:11;;;;;;;;;;;5.50;96.70;;;;;;5130244;27;19954;-71
2024/01/29 00:31:37;;;;;;;;;;;5.50;96.70;;;;;;5137773;27;19923;-72
2024/01/29 00:34:02;;;;;;;;;;;5.50;96.70;;;;;;5102171;27;20363;-72
2024/01/29 00:36:28;;;;;;;;;;;5.50;96.70;;;;;;5134166;27;20316;-72
2024/01/29 00:38:53;;;;;;;;;;;5.50;96.70;;;;;;5123430;27;19936;-71
2024/01/29 00:41:19;;;;;;;;;;;5.50;96.70;;;;;;5109329;28;19935;-71
2024/01/29 00:43:44;;;;;;;;;;;5.60;96.70;;;;;;5108316;28;20379;-72
2024/01/29 00:46:10;;;;;;;;;;;5.50;96.70;;;;;;5109635;28;19927;-72
2024/01/29 00:48:35;;;;;;;;;;;5.50;96.70;;;;;;5110232;28;19928;-72
2024/01/29 00:51:01;;;;;;;;;;;5.50;96.70;;;;;;5119134;27;19966;-72
2024/01/29 00:53:27;;;;;;;;;;;5.50;96.70;;;;;;5113205;27;19954;-72
2024/01/29 00:55:53;;;;;;;;;;;5.50;96.70;;;;;;5110360;27;19923;-72
2024/01/29 00:58:19;;;;;;;;;;;5.50;96.80;;;;;;5111764;27;19927;-72
2024/01/29 01:00:45;;;;;;;;;;;5.40;96.80;;;;;;5112004;27;19974;-72
2024/01/29 01:03:11;;;;;;;;;;;5.40;96.70;;;;;;5111343;27;19966;-72
2024/01/29 01:05:36;;;;;;;;;;;5.40;96.80;;;;;;5113045;27;19963;-71
2024/01/29 01:08:03;;;;;;;;;;;5.40;96.80;;;;;;5112391;27;19930;-71
2024/01/29 01:10:29;;;;;;;;;;;5.40;96.90;;;;;;5112392;27;19924;-72
2024/01/29 01:12:54;;;;;;;;;;;5.40;96.90;;;;;;5129635;27;19959;-72
2024/01/29 01:15:20;;;;;;;;;;;5.40;96.90;;;;;;5111969;27;20096;-72
2024/01/29 01:17:45;;;;;;;;;;;5.30;96.90;;;;;;5112610;27;20142;-71
2024/01/29 01:20:11;;;;;;;;;;;5.30;96.90;;;;;;5111867;27;20010;-72
2024/01/29 01:22:37;;;;;;;;;;;5.40;96.90;;;;;;5111141;27;20022;-72
2024/01/29 01:25:03;;;;;;;;;;;5.30;97.00;;;;;;5111632;28;19923;-72
2024/01/29 01:27:28;;;;;;;;;;;5.30;97.00;;;;;;5110235;28;20000;-71
2024/01/29 01:29:54;;;;;;;;;;;5.30;96.90;;;;;;5110781;28;20306;-72
2024/01/29 01:32:20;;;;;;;;;;;6.60;97.30;;;;;;5117455;27;20154;-72
2024/01/29 01:34:45;;;;;;;;;;;5.30;97.00;;;;;;5111635;28;20290;-72
2024/01/29 01:37:11;;;;;;;;;;;5.20;97.00;;;;;;5110813;28;19923;-72
2024/01/29 01:39:37;;;;;;;;;;;5.20;97.00;;;;;;5112476;28;20347;-72
2024/01/29 01:42:04;;;;;;;;;;;5.30;97.00;;;;;;5110819;28;20014;-72
2024/01/29 01:44:30;;;;;;;;;;;5.20;97.10;;;;;;5111196;28;19924;-72
2024/01/29 01:46:55;;;;;;;;;;;5.50;97.20;;;;;;5129980;28;19930;-72
2024/01/29 01:49:22;;;;;;;;;;;5.10;97.10;;;;;;5114646;27;19974;-72
2024/01/29 01:51:48;;;;;;;;;;;5.10;97.10;;;;;;5115369;27;19941;-71
2024/01/29 01:54:14;;;;;;;;;;;5.10;97.10;;;;;;5114954;27;19923;-72
2024/01/29 01:56:40;;;;;;;;;;;5.20;97.20;;;;;;5115778;27;20351;-72
2024/01/29 01:59:07;;;;;;;;;;;5.10;97.20;;;;;;5114329;27;19927;-72
2024/01/29 02:01:32;;;;;;;;;;;5.10;97.10;;;;;;5116330;27;19928;-72
2024/01/29 02:03:58;;;;;;;;;;;5.10;97.10;;;;;;5136746;27;19983;-72
2024/01/29 02:06:24;;;;;;;;;;;5.10;97.10;;;;;;5124981;27;19930;-72
2024/01/29 02:08:49;;;;;;;;;;;5.10;97.20;;;;;;5112617;28;20466;-72
2024/01/29 02:11:15;;;;;;;;;;;5.30;97.20;;;;;;5113321;28;19935;-72
2024/01/29 02:13:41;;;;;;;;;;;5.10;97.20;;;;;;5110580;28;19928;-72
2024/01/29 02:16:06;;;;;;;;;;;5.60;97.40;;;;;;5113962;27;19925;-71
2024/01/29 02:18:32;;;;;;;;;;;5.00;97.30;;;;;;5131582;27;19919;-71
2024/01/29 02:20:57;;;;;;;;;;;5.00;97.30;;;;;;5115519;27;19923;-72
2024/01/29 02:23:23;;;;;;;;;;;5.00;97.30;;;;;;5132593;27;20018;-71
2024/01/29 02:25:48;;;;;;;;;;;4.90;97.30;;;;;;5145372;27;19953;-72
2024/01/29 02:28:14;;;;;;;;;;;5.20;97.50;;;;;;5154207;27;20336;-72
2024/01/29 02:30:39;;;;;;;;;;;4.90;97.40;;;;;;5136210;27;19976;-72
2024/01/29 02:33:05;;;;;;;;;;;4.90;97.40;;;;;;5100155;28;20438;-72
2024/01/29 02:35:30;;;;;;;;;;;4.90;97.50;;;;;;5112594;28;19924;-72
2024/01/29 02:37:56;;;;;;;;;;;5.10;97.60;;;;;;5113153;28;20015;-72
2024/01/29 02:40:21;;;;;;;;;;;4.80;97.50;;;;;;5095023;28;20018;-72
2024/01/29 02:42:47;;;;;;;;;;;4.80;97.50;;;;;;5108313;28;20014;-71
2024/01/29 02:45:12;;;;;;;;;;;4.80;97.50;;;;;;5108175;27;20018;-71
2024/01/29 02:47:38;;;;;;;;;;;5.00;97.60;;;;;;5113664;27;20012;-71
2024/01/29 02:50:04;;;;;;;;;;;4.90;97.50;;;;;;5114929;27;19927;-71
2024/01/29 02:52:29;;;;;;;;;;;4.80;97.50;;;;;;5113075;27;19970;-71
2024/01/29 02:54:55;;;;;;;;;;;4.80;97.50;;;;;;5113100;27;20015;-71
2024/01/29 02:57:23;;;;;;;;;;;4.80;97.50;;;;;;5113500;27;20356;-72
2024/01/29 02:59:49;;;;;;;;;;;5.90;97.80;;;;;;5113174;28;20318;-72
2024/01/29 03:02:15;;;;;;;;;;;4.80;97.60;;;;;;5113935;27;19934;-72
2024/01/29 03:04:40;;;;;;;;;;;4.80;97.60;;;;;;5115279;27;19923;-72
2024/01/29 03:07:06;;;;;;;;;;;4.80;97.60;;;;;;5114735;27;20130;-71
2024/01/29 03:09:31;;;;;;;;;;;4.70;97.60;;;;;;5114888;27;19930;-72
2024/01/29 03:11:57;;;;;;;;;;;4.70;97.70;;;;;;5113795;27;19930;-72
2024/01/29 03:14:22;;;;;;;;;;;4.70;97.70;;;;;;5114303;27;19930;-72
2024/01/29 03:16:51;;;;;;;;;;;4.70;97.80;;;;;;5114324;27;19924;-72
2024/01/29 03:19:16;;;;;;;;;;;4.70;97.80;;;;;;5114824;27;19924;-72
2024/01/29 03:21:42;;;;;;;;;;;4.70;97.90;;;;;;5115007;27;20275;-72
2024/01/29 03:24:08;;;;;;;;;;;4.60;97.80;;;;;;5112830;27;19931;-71
2024/01/29 03:26:33;;;;;;;;;;;4.60;97.90;;;;;;5114806;27;19931;-71
2024/01/29 03:28:59;;;;;;;;;;;4.60;97.90;;;;;;5112892;27;19927;-71
2024/01/29 03:31:25;;;;;;;;;;;4.60;97.90;;;;;;5133347;27;20026;-71
2024/01/29 03:33:50;;;;;;;;;;;4.60;97.90;;;;;;5101861;28;20026;-71
2024/01/29 03:36:16;;;;;;;;;;;4.70;97.90;;;;;;5104255;27;20052;-71
2024/01/29 03:38:41;;;;;;;;;;;4.60;97.90;;;;;;5114050;27;19968;-71
2024/01/29 03:41:07;;;;;;;;;;;4.60;97.90;;;;;;5113589;27;19976;-71
2024/01/29 03:43:33;;;;;;;;;;;4.60;98.00;;;;;;5112361;27;19924;-71
2024/01/29 03:45:58;;;;;;;;;;;5.10;98.10;;;;;;5114146;27;19931;-72
2024/01/29 03:48:24;;;;;;;;;;;4.60;98.00;;;;;;5113801;27;19928;-71
2024/01/29 03:50:49;;;;;;;;;;;4.50;98.00;;;;;;5113165;27;20178;-72
2024/01/29 03:53:15;;;;;;;;;;;4.50;98.00;;;;;;5113121;27;20378;-71
2024/01/29 03:55:41;;;;;;;;;;;4.50;98.00;;;;;;5114149;27;19927;-71
2024/01/29 03:58:07;;;;;;;;;;;4.50;98.10;;;;;;5111990;27;20363;-72
2024/01/29 04:00:32;;;;;;;;;;;4.50;98.10;;;;;;5113618;27;19924;-71
2024/01/29 04:02:58;;;;;;;;;;;4.40;98.10;;;;;;5112263;27;19967;-71
2024/01/29 04:05:24;;;;;;;;;;;4.40;98.40;;;;;;5134792;27;19924;-71
2024/01/29 04:07:49;;;;;;;;;;;4.40;98.20;;;;;;5133710;27;19923;-72
2024/01/29 04:10:15;;;;;;;;;;;4.40;98.20;;;;;;5134524;27;20336;-72
2024/01/29 04:12:42;;;;;;;;;;;4.40;98.20;;;;;;5150738;27;19923;-71
2024/01/29 04:15:07;;;;;;;;;;;4.40;98.20;;;;;;5133264;27;20053;-71
2024/01/29 04:17:33;;;;;;;;;;;4.40;98.30;;;;;;5131499;27;19963;-71
2024/01/29 04:19:59;;;;;;;;;;;4.40;98.30;;;;;;5112186;27;19923;-71
2024/01/29 04:22:25;;;;;;;;;;;4.40;98.30;;;;;;5113324;27;19950;-71
2024/01/29 04:24:51;;;;;;;;;;;4.30;98.30;;;;;;5130995;27;19923;-71
2024/01/29 04:27:16;;;;;;;;;;;4.30;98.30;;;;;;5112358;27;19980;-72
2024/01/29 04:29:42;;;;;;;;;;;4.30;98.40;;;;;;5130444;27;19924;-71
2024/01/29 04:32:07;;;;;;;;;;;4.30;98.50;;;;;;5112608;27;20297;-71
2024/01/29 04:34:33;;;;;;;;;;;4.30;98.50;;;;;;5103541;28;19953;-71
2024/01/29 04:36:58;;;;;;;;;;;4.30;98.80;;;;;;5093141;27;19930;-71
2024/01/29 04:39:24;;;;;;;;;;;4.30;98.60;;;;;;5112525;27;19980;-72
2024/01/29 04:41:51;;;;;;;;;;;4.30;98.60;;;;;;5130612;27;20019;-72
2024/01/29 04:44:16;;;;;;;;;;;4.30;98.70;;;;;;5130794;27;20408;-71
2024/01/29 04:46:42;;;;;;;;;;;4.20;98.70;;;;;;5112566;27;19970;-71
2024/01/29 04:49:07;;;;;;;;;;;4.20;98.80;;;;;;5112909;27;19961;-71
2024/01/29 04:51:33;;;;;;;;;;;4.30;98.80;;;;;;5113113;27;20026;-71
2024/01/29 04:53:58;;;;;;;;;;;4.40;98.90;;;;;;5130142;27;19923;-72
2024/01/29 04:56:24;;;;;;;;;;;4.30;98.90;;;;;;5131378;27;19931;-72
2024/01/29 04:58:50;;;;;;;;;;;4.30;98.90;;;;;;5111595;27;20267;-71
2024/01/29 05:01:16;;;;;;;;;;;4.20;98.90;;;;;;5110198;27;19963;-71
2024/01/29 05:03:41;;;;;;;;;;;4.20;98.90;;;;;;5140380;27;19930;-71
2024/01/29 05:06:07;;;;;;;;;;;4.30;99.00;;;;;;5112492;27;19923;-71
2024/01/29 05:08:32;;;;;;;;;;;4.30;99.00;;;;;;5102145;28;19996;-71
2024/01/29 05:10:58;;;;;;;;;;;4.30;99.00;;;;;;5091967;28;20018;-71
2024/01/29 05:13:23;;;;;;;;;;;4.30;99.10;;;;;;5091144;28;19930;-71
2024/01/29 05:15:49;;;;;;;;;;;4.30;99.10;;;;;;5109432;28;19974;-71
2024/01/29 05:18:14;;;;;;;;;;;4.30;99.10;;;;;;5092728;28;20030;-71
2024/01/29 05:20:40;;;;;;;;;;;4.30;99.20;;;;;;5120002;27;19968;-71
2024/01/29 05:23:08;;;;;;;;;;;4.30;99.20;;;;;;5109775;27;19923;-70
2024/01/29 05:25:34;;;;;;;;;;;4.20;99.20;;;;;;5112153;27;19972;-71
2024/01/29 05:28:00;;;;;;;;;;;4.20;99.20;;;;;;5111427;27;19928;-71
2024/01/29 05:30:25;;;;;;;;;;;5.80;99.60;;;;;;5111856;28;20002;-71
2024/01/29 05:32:51;;;;;;;;;;;4.30;99.20;;;;;;5111901;27;19930;-71
2024/01/29 05:35:17;;;;;;;;;;;4.30;99.30;;;;;;5104076;28;19931;-71
2024/01/29 05:37:42;;;;;;;;;;;4.30;99.30;;;;;;5123357;27;20347;-71
2024/01/29 05:40:09;;;;;;;;;;;4.30;99.30;;;;;;5111486;28;20027;-71
2024/01/29 05:42:35;;;;;;;;;;;4.30;99.30;;;;;;5110682;28;20324;-71
2024/01/29 05:45:00;;;;;;;;;;;4.30;99.40;;;;;;5129669;28;20003;-71
2024/01/29 05:47:26;;;;;;;;;;;4.30;99.40;;;;;;5111545;28;19929;-71
2024/01/29 05:49:51;;;;;;;;;;;4.30;99.50;;;;;;5111264;28;19961;-71
2024/01/29 05:52:17;;;;;;;;;;;4.30;99.50;;;;;;5130466;27;19927;-71
2024/01/29 05:54:42;;;;;;;;;;;4.30;99.50;;;;;;5121433;28;20019;-71
2024/01/29 05:57:11;;;;;;;;;;;4.30;99.50;;;;;;5109362;28;19978;-71
2024/01/29 05:59:40;;;;;;;;;;;4.30;99.60;;;;;;5130114;28;19930;-71
2024/01/29 06:02:05;;;;;;;;;;;4.30;99.60;;;;;;5110603;28;20006;-71
2024/01/29 06:04:31;;;;;;;;;;;4.30;99.60;;;;;;5129937;27;20010;-71
2024/01/29 06:06:56;;;;;;;;;;;4.40;99.70;;;;;;5129896;27;19919;-71
2024/01/29 06:09:22;;;;;;;;;;;4.40;99.70;;;;;;5111936;27;20302;-73
2024/01/29 06:11:51;;;;;;;;;;;4.40;99.70;;;;;;5110486;28;20254;-71
2024/01/29 06:14:17;;;;;;;;;;;4.40;99.70;;;;;;5111194;28;19924;-71
2024/01/29 06:16:45;;;;;;;;;;;4.20;99.70;;;;;;5111985;28;20002;-70
2024/01/29 06:19:15;;;;;;;;;;;4.40;99.70;;;;;;5111243;28;20359;-71
2024/01/29 06:21:44;;;;;;;;;;;4.40;99.80;;;;;;5112053;28;20018;-71
2024/01/29 06:24:09;;;;;;;;;;;4.40;99.70;;;;;;5110075;28;19965;-71
2024/01/29 06:26:35;;;;;;;;;;;4.40;99.70;;;;;;5110209;28;19974;-71
2024/01/29 06:29:01;;;;;;;;;;;4.60;99.80;;;;;;5093223;28;19924;-71
2024/01/29 06:31:26;;;;;;;;;;;4.40;99.80;;;;;;5092346;28;20422;-71
2024/01/29 06:33:55;;;;;;;;;;;4.40;99.80;;;;;;5110673;27;19957;-71
2024/01/29 06:36:20;;;;;;;;;;;4.40;99.80;;;;;;5108221;27;19924;-71
2024/01/29 06:38:46;;;;;;;;;;;4.40;99.80;;;;;;5113894;27;19926;-71
2024/01/29 06:41:22;;;;;;;;;;;4.40;99.80;;;;;;5115320;27;20286;-71
2024/01/29 06:43:48;;;;;;;;;;;4.40;99.80;;;;;;5113758;27;20370;-71
2024/01/29 06:46:13;;;;;;;;;;;4.40;99.80;;;;;;5114525;27;19919;-71
2024/01/29 06:48:39;;;;;;;;;;;4.30;99.80;;;;;;5105011;27;20058;-71
2024/01/29 06:51:04;;;;;;;;;;;4.40;99.90;;;;;;5114785;27;19923;-71
2024/01/29 06:53:31;;;;;;;;;;;4.30;99.90;;;;;;5110612;27;19924;-71
2024/01/29 06:55:59;;;;;;;;;;;4.30;99.90;;;;;;5114230;27;20478;-71
2024/01/29 06:58:25;;;;;;;;;;;4.30;99.90;;;;;;5113619;27;19934;-71
2024/01/29 07:00:51;;;;;;;;;;;4.30;99.90;;;;;;5114156;27;19927;-71
2024/01/29 07:03:17;;;;;;;;;;;4.30;99.90;;;;;;5115300;27;19972;-71
2024/01/29 07:05:43;;;;;;;;;;;4.30;99.90;;;;;;5115402;27;19927;-71
2024/01/29 07:08:08;;;;;;;;;;;4.30;99.90;;;;;;5114148;27;19927;-71
2024/01/29 07:10:34;;;;;;;;;;;4.30;99.90;;;;;;5115625;27;20353;-71
2024/01/29 07:12:59;;;;;;;;;;;4.30;99.90;;;;;;5132004;27;20547;-70
2024/01/29 07:15:25;;;;;;;;;;;4.30;99.90;;;;;;5132451;27;19931;-71
2024/01/29 07:17:51;;;;;;;;;;;4.30;99.90;;;;;;5113599;27;19923;-71
2024/01/29 07:20:16;;;;;;;;;;;4.30;99.90;;;;;;5133430;27;19992;-71
2024/01/29 07:22:42;;;;;;;;;;;4.40;99.90;;;;;;5113977;27;19931;-71
2024/01/29 07:25:08;;;;;;;;;;;4.30;99.90;;;;;;5114332;27;19930;-71
2024/01/29 07:27:33;;;;;;;;;;;4.30;99.90;;;;;;5113822;27;19923;-72
2024/01/29 07:29:59;;;;;;;;;;;4.30;99.90;;;;;;5118995;27;20010;-71
2024/01/29 07:32:31;;;;;;;;;;;4.40;99.90;;;;;;5113994;27;19997;-71
2024/01/29 07:34:58;;;;;;;;;;;4.40;99.90;;;;;;5113269;27;19984;-71
2024/01/29 07:37:23;;;;;;;;;;;4.40;99.90;;;;;;5104109;28;19924;-72
2024/01/29 07:39:49;;;;;;;;;;;4.40;99.90;;;;;;5108295;27;20336;-72
2024/01/29 07:42:14;;;;;;;;;;;4.40;99.90;;;;;;5109406;27;19938;-72
2024/01/29 07:44:40;;;;;;;;;;;4.40;99.90;;;;;;5126892;27;19923;-72
2024/01/29 07:47:05;;;;;;;;;;;4.40;99.90;;;;;;5109484;27;19927;-72
2024/01/29 07:49:31;;;;;;;;;;;4.40;99.90;;;;;;5112912;27;19929;-72
2024/01/29 07:51:57;;;;;;;;;;;4.40;99.90;;;;;;5106551;27;20409;-72
2024/01/29 07:54:23;;;;;;;;;;;4.40;99.90;;;;;;5114295;27;19926;-72
2024/01/29 07:56:48;;;;;;;;;;;4.50;99.90;;;;;;5130801;27;19927;-72
2024/01/29 07:59:14;;;;;;;;;;;4.50;99.90;;;;;;5131390;27;20006;-72
2024/01/29 08:01:39;;;;;;;;;;;6.00;99.90;;;;;;5102990;28;19924;-71
2024/01/29 08:04:05;;;;;;;;;;;4.50;99.90;;;;;;5105961;27;20374;-72
2024/01/29 08:06:31;;;;;;;;;;;4.60;99.90;;;;;;5114489;27;20366;-72
2024/01/29 08:08:57;;;;;;;;;;;4.60;99.90;;;;;;5113623;27;20395;-72
2024/01/29 08:11:22;;;;;;;;;;;4.60;99.90;;;;;;5112332;27;19924;-72
2024/01/29 08:13:48;;;;;;;;;;;4.70;99.90;;;;;;5111080;27;19976;-72
2024/01/29 08:16:13;;;;;;;;;;;4.60;99.90;;;;;;5099863;28;19996;-71
2024/01/29 08:18:39;;;;;;;;;;;4.70;99.90;;;;;;5092758;28;20260;-72
2024/01/29 08:21:04;;;;;;;;;;;4.70;99.90;;;;;;5093224;28;19949;-72
2024/01/29 08:23:30;;;;;;;;;;;4.90;99.90;;;;;;5093120;28;19923;-72
2024/01/29 08:25:55;;;;;;;;;;;4.80;99.90;;;;;;5110430;28;19926;-72
2024/01/29 08:28:21;;;;;;;;;;;4.80;99.90;;;;;;5092157;28;19950;-72
2024/01/29 08:30:47;;;;;;;;;;;4.90;99.90;;;;;;5093287;28;20293;-72
2024/01/29 08:33:13;;;;;;;;;;;4.90;99.90;;;;;;5125753;27;19973;-72
2024/01/29 08:35:38;;;;;;;;;;;5.30;99.90;;;;;;5113582;27;20567;-72
2024/01/29 08:38:04;;;;;;;;;;;5.00;99.90;;;;;;5111655;27;20512;-72
2024/01/29 08:40:30;;;;;;;;;;;5.10;99.90;;;;;;5111426;27;19923;-72
2024/01/29 08:42:55;;;;;;;;;;;5.10;99.90;;;;;;5129440;27;19924;-72
2024/01/29 08:45:21;;;;;;;;;;;5.10;99.90;;;;;;5111561;27;20311;-72
2024/01/29 08:47:46;;;;;;;;;;;5.20;99.90;;;;;;5111646;27;19931;-72
2024/01/29 08:50:12;;;;;;;;;;;5.20;99.90;;;;;;5113024;27;19930;-72
2024/01/29 08:52:39;;;;;;;;;;;5.20;99.90;;;;;;5105821;27;19930;-72
2024/01/29 08:55:06;;;;;;;;;;;5.30;99.90;;;;;;5113097;27;19931;-72
2024/01/29 08:57:31;;;;;;;;;;;5.30;99.90;;;;;;5130048;27;19923;-72
2024/01/29 08:59:57;;;;;;;;;;;5.40;99.90;;;;;;5110579;27;20179;-72
2024/01/29 09:02:27;;;;;;;;;;;5.40;99.90;;;;;;5112921;27;19931;-72
2024/01/29 09:04:53;;;;;;;;;;;5.40;99.90;;;;;;5112379;27;19923;-72
2024/01/29 09:07:18;;;;;;;;;;;6.60;99.90;;;;;;5112330;27;19931;-72
2024/01/29 09:09:44;;;;;;;;;;;5.50;99.90;;;;;;5112175;27;20320;-72
2024/01/29 09:12:10;;;;;;;;;;;5.50;99.90;;;;;;5106730;28;19934;-72
2024/01/29 09:14:35;;;;;;;;;;;5.60;99.90;;;;;;5107462;28;20154;-72
2024/01/29 09:17:01;;;;;;;;;;;5.60;99.90;;;;;;5108639;28;20340;-72
2024/01/29 09:19:26;;;;;;;;;;;7.20;99.90;;;;;;5109768;28;20432;-72
2024/01/29 09:21:52;;;;;;;;;;;5.70;99.90;;;;;;5107845;28;19974;-72
2024/01/29 09:24:18;;;;;;;;;;;5.80;99.90;;;;;;5110859;28;19971;-72
2024/01/29 09:26:43;;;;;;;;;;;6.00;99.90;;;;;;5110254;28;19971;-72
2024/01/29 09:29:09;;;;;;;;;;;6.10;99.90;;;;;;5107832;28;19928;-72
2024/01/29 09:31:34;;;;;;;;;;;5.90;99.90;;;;;;5109375;28;19924;-72
2024/01/29 09:34:00;;;;;;;;;;;5.90;99.90;;;;;;5108049;28;19969;-72
2024/01/29 09:36:25;;;;;;;;;;;6.00;99.90;;;;;;5108473;28;19924;-72
2024/01/29 09:38:51;;;;;;;;;;;6.00;99.90;;;;;;5108683;28;19924;-72
2024/01/29 09:41:17;;;;;;;;;;;6.10;99.90;;;;;;5107798;28;19924;-72
2024/01/29 09:43:45;;;;;;;;;;;6.10;99.90;;;;;;5106896;28;20338;-72
2024/01/29 09:46:11;;;;;;;;;;;6.30;99.90;;;;;;5108812;28;19927;-72
2024/01/29 09:48:37;;;;;;;;;;;6.20;99.90;;;;;;5109061;28;19924;-71
2024/01/29 09:51:03;;;;;;;;;;;6.40;99.90;;;;;;5108543;28;19923;-72
2024/01/29 09:53:29;;;;;;;;;;;6.30;99.90;;;;;;5107103;28;20010;-72
2024/01/29 09:55:54;;;;;;;;;;;6.30;99.90;;;;;;5108987;28;20438;-72
2024/01/29 09:58:20;;;;;;;;;;;6.40;99.90;;;;;;5108345;28;19931;-71
2024/01/29 10:00:45;;;;;;;;;;;6.40;99.90;;;;;;5104786;28;19932;-72
2024/01/29 10:03:17;;;;;;;;;;;6.40;99.90;;;;;;5100960;28;20291;-72
2024/01/29 10:05:43;;;;;;;;;;;6.60;99.90;;;;;;5108799;28;19924;-72
2024/01/29 10:08:10;;;;;;;;;;;6.50;99.90;;;;;;5108455;28;19928;-72
2024/01/29 10:10:35;;;;;;;;;;;6.50;99.90;;;;;;5109497;28;19924;-72
2024/01/29 10:13:04;;;;;;;;;;;6.60;99.90;;;;;;5110724;28;19924;-72
2024/01/29 10:15:30;;;;;;;;;;;6.60;99.90;;;;;;5112360;28;19931;-72
2024/01/29 10:17:56;;;;;;;;;;;6.70;99.90;;;;;;5111592;28;19923;-72
2024/01/29 10:20:22;;;;;;;;;;;6.80;99.90;;;;;;5112346;28;20323;-72
2024/01/29 10:22:48;;;;;;;;;;;7.80;99.90;;;;;;5112064;28;20015;-72
2024/01/29 10:25:14;;;;;;;;;;;6.80;99.90;;;;;;5111620;28;19930;-72
2024/01/29 10:27:40;;;;;;;;;;;7.00;99.90;;;;;;5111627;28;19928;-72
2024/01/29 10:30:06;;;;;;;;;;;7.00;99.90;;;;;;5099024;28;19931;-71
2024/01/29 10:32:32;;;;;;;;;;;7.10;99.90;;;;;;5093102;28;19968;-72
2024/01/29 10:34:57;;;;;;;;;;;7.10;99.90;;;;;;5091672;28;19967;-72
2024/01/29 10:37:25;;;;;;;;;;;7.30;99.90;;;;;;5094039;28;19988;-71
2024/01/29 10:39:53;;;;;;;;;;;7.30;99.90;;;;;;5108938;28;19938;-71
2024/01/29 10:42:19;;;;;;;;;;;7.40;99.90;;;;;;5110138;28;20064;-71
2024/01/29 10:44:45;;;;;;;;;;;7.50;99.90;;;;;;5112626;27;19927;-72
2024/01/29 10:47:20;;;;;;;;;;;7.50;99.90;;;;;;5110438;28;19947;-71
2024/01/29 10:49:45;;;;;;;;;;;7.60;99.90;;;;;;5107946;28;19927;-71
2024/01/29 10:52:12;;;;;;;;;;;7.70;99.90;;;;;;5110045;28;19984;-71
2024/01/29 10:54:38;;;;;;;;;;;7.80;99.90;;;;;;5111566;28;19924;-72
2024/01/29 10:57:09;;;;;;;;;;;7.80;99.90;;;;;;5108751;28;19951;-71
2024/01/29 10:59:36;;;;;;;;;;;8.00;99.90;;;;;;5109376;28;19986;-71
2024/01/29 11:02:03;;;;;;;;;;;8.00;99.90;;;;;;5110286;27;19924;-72
2024/01/29 11:04:29;;;;;;;;;;;8.00;99.90;;;;;;5108625;28;20276;-72
2024/01/29 11:07:03;;;;;;;;;;;8.00;99.90;;;;;;5121490;27;19931;-72
2024/01/29 11:09:30;;;;;;;;;;;8.00;99.90;;;;;;5112369;28;19982;-71
2024/01/29 11:11:56;;;;;;;;;;;8.10;99.90;;;;;;5111961;27;19924;-71
2024/01/29 11:14:22;;;;;;;;;;;8.20;99.90;;;;;;5112749;27;19923;-71
2024/01/29 11:16:50;;;;;;;;;;;8.10;99.90;;;;;;5112918;27;19927;-71
2024/01/29 11:19:16;;;;;;;;;;;8.20;99.90;;;;;;5114338;27;19924;-71
2024/01/29 11:21:49;;;;;;;;;;;8.40;99.90;;;;;;5112248;27;19980;-71
2024/01/29 11:24:14;;;;;;;;;;;8.20;99.90;;;;;;5112444;27;20152;-71
2024/01/29 11:26:40;;;;;;;;;;;8.20;99.90;;;;;;5114457;27;20419;-71
2024/01/29 11:29:06;;;;;;;;;;;8.20;99.90;;;;;;5112622;27;19977;-72
2024/01/29 11:31:41;;;;;;;;;;;8.30;99.90;;;;;;5132761;27;19927;-71
2024/01/29 11:34:07;;;;;;;;;;;8.30;99.90;;;;;;5113554;27;19927;-71
2024/01/29 11:36:37;;;;;;;;;;;8.30;99.90;;;;;;5114018;27;19935;-71
2024/01/29 11:39:06;;;;;;;;;;;8.30;99.90;;;;;;5113766;27;19924;-71
2024/01/29 11:41:35;;;;;;;;;;;8.30;99.90;;;;;;5113318;27;19927;-71
2024/01/29 11:44:02;;;;;;;;;;;8.30;99.90;;;;;;5112168;27;19931;-72
2024/01/29 11:46:28;;;;;;;;;;;8.50;99.90;;;;;;5112678;27;20288;-71
2024/01/29 11:48:58;;;;;;;;;;;8.40;99.90;;;;;;5111125;27;19931;-71
2024/01/29 11:51:25;;;;;;;;;;;8.40;99.90;;;;;;5112825;27;19934;-72
2024/01/29 11:53:51;;;;;;;;;;;8.40;99.90;;;;;;5111283;27;19931;-71
2024/01/29 11:56:17;;;;;;;;;;;9.40;99.90;;;;;;5112757;27;20260;-71
2024/01/29 11:58:43;;;;;;;;;;;8.40;99.90;;;;;;5111816;27;19927;-72
2024/01/29 12:01:09;;;;;;;;;;;8.50;99.90;;;;;;5113686;27;19971;-71
2024/01/29 12:03:35;;;;;;;;;;;8.50;99.90;;;;;;5105186;28;20290;-72
2024/01/29 12:06:01;;;;;;;;;;;8.60;99.90;;;;;;5110495;28;20463;-71
2024/01/29 12:08:27;;;;;;;;;;;8.60;99.90;;;;;;5107535;27;19972;-71
2024/01/29 12:11:03;;;;;;;;;;;8.70;99.90;;;;;;5112645;27;19970;-71
2024/01/29 12:13:29;;;;;;;;;;;8.80;99.90;;;;;;5112728;27;19923;-72
2024/01/29 12:15:55;;;;;;;;;;;9.00;99.90;;;;;;5131059;27;19928;-71
2024/01/29 12:18:23;;;;;;;;;;;8.90;99.90;;;;;;5112600;27;20007;-71
2024/01/29 12:20:48;;;;;;;;;;;9.00;99.90;;;;;;5113033;27;19924;-71
2024/01/29 12:23:16;;;;;;;;;;;9.00;99.90;;;;;;5113636;27;20399;-71
2024/01/29 12:25:42;;;;;;;;;;;9.00;99.90;;;;;;5112797;27;19919;-71
2024/01/29 12:28:09;;;;;;;;;;;9.20;99.90;;;;;;5112197;27;20245;-71
2024/01/29 12:30:35;;;;;;;;;;;9.00;99.90;;;;;;5112264;27;20191;-71
2024/01/29 12:33:00;;;;;;;;;;;9.10;99.90;;;;;;5112155;27;19946;-71
2024/01/29 12:35:28;;;;;;;;;;;9.00;99.90;;;;;;5112494;27;19919;-71
2024/01/29 12:38:03;;;;;;;;;;;9.10;99.90;;;;;;5110864;27;19924;-71
2024/01/29 12:40:28;;;;;;;;;;;9.00;99.90;;;;;;5113195;27;19931;-71
2024/01/29 12:42:59;;;;;;;;;;;9.00;99.90;;;;;;5111525;27;19927;-71
2024/01/29 12:45:24;;;;;;;;;;;9.10;99.90;;;;;;5130892;27;20270;-71
2024/01/29 12:47:50;;;;;;;;;;;9.00;99.90;;;;;;5112702;27;19923;-71
2024/01/29 12:50:17;;;;;;;;;;;9.00;99.90;;;;;;5131415;27;20471;-71
2024/01/29 12:52:43;;;;;;;;;;;9.00;99.90;;;;;;5098446;28;20318;-71
2024/01/29 12:55:08;;;;;;;;;;;9.00;99.90;;;;;;5092351;28;19927;-71
2024/01/29 12:57:34;;;;;;;;;;;9.00;99.90;;;;;;5109716;28;20375;-71
2024/01/29 12:59:59;;;;;;;;;;;9.00;99.90;;;;;;5100889;27;20393;-71
2024/01/29 13:02:25;;;;;;;;;;;9.00;99.90;;;;;;5110673;27;20352;-71
2024/01/29 13:04:50;;;;;;;;;;;9.00;99.90;;;;;;5126269;27;19975;-72
2024/01/29 13:07:16;;;;;;;;;;;9.00;99.90;;;;;;5110785;27;20003;-72
2024/01/29 13:09:41;;;;;;;;;;;8.90;99.90;;;;;;5131132;27;19920;-71
2024/01/29 13:12:07;;;;;;;;;;;9.00;99.90;;;;;;5111371;27;20416;-72
2024/01/29 13:14:32;;;;;;;;;;;9.00;99.90;;;;;;5110584;27;19935;-71
2024/01/29 13:16:58;;;;;;;;;;;9.00;99.90;;;;;;5112480;27;20290;-71
2024/01/29 13:19:23;;;;;;;;;;;9.00;99.90;;;;;;5095839;27;20355;-71
2024/01/29 13:21:49;;;;;;;;;;;9.00;99.90;;;;;;5111659;27;19927;-72
2024/01/29 13:24:14;;;;;;;;;;;9.00;99.90;;;;;;5112794;27;19976;-72
2024/01/29 13:26:43;;;;;;;;;;;8.90;99.90;;;;;;5110796;27;19928;-72
2024/01/29 13:29:08;;;;;;;;;;;9.10;99.90;;;;;;5130614;27;20397;-72
2024/01/29 13:31:35;;;;;;;;;;;8.90;99.90;;;;;;5131299;27;19934;-72
2024/01/29 13:34:00;;;;;;;;;;;9.00;99.90;;;;;;5110897;27;20375;-71
2024/01/29 13:36:26;;;;;;;;;;;8.90;99.90;;;;;;5112410;28;19927;-72
2024/01/29 13:38:52;;;;;;;;;;;8.90;99.90;;;;;;5111086;28;19951;-72
2024/01/29 13:41:17;;;;;;;;;;;8.90;99.90;;;;;;5111661;28;19977;-71
2024/01/29 13:43:43;;;;;;;;;;;8.90;99.90;;;;;;5128857;27;19927;-72
2024/01/29 13:46:14;;;;;;;;;;;8.90;99.90;;;;;;5111952;28;19928;-72
2024/01/29 13:48:39;;;;;;;;;;;8.90;99.90;;;;;;5111527;28;19930;-71
2024/01/29 13:51:05;;;;;;;;;;;8.80;99.90;;;;;;5105672;28;19923;-72
2024/01/29 13:53:30;;;;;;;;;;;8.80;99.90;;;;;;5130261;27;20287;-71
2024/01/29 13:55:56;;;;;;;;;;;8.80;99.90;;;;;;5128332;28;19924;-71
2024/01/29 13:58:21;;;;;;;;;;;8.80;99.90;;;;;;5111187;28;19923;-71
2024/01/29 14:00:47;;;;;;;;;;;8.80;99.90;;;;;;5130040;28;19923;-71
2024/01/29 14:03:12;;;;;;;;;;;8.80;99.90;;;;;;5111553;28;20350;-71
2024/01/29 14:05:38;;;;;;;;;;;8.80;99.90;;;;;;5103126;28;20422;-71
2024/01/29 14:08:03;;;;;;;;;;;8.80;99.90;;;;;;5090434;28;19993;-71
2024/01/29 14:10:34;;;;;;;;;;;8.70;99.90;;;;;;5102520;28;19954;-71
2024/01/29 14:12:59;;;;;;;;;;;8.70;99.90;;;;;;5090007;28;20401;-72
2024/01/29 14:15:25;;;;;;;;;;;8.70;99.90;;;;;;5118941;28;19924;-71
2024/01/29 14:17:50;;;;;;;;;;;8.80;99.90;;;;;;5110731;28;20072;-71
2024/01/29 14:20:16;;;;;;;;;;;8.80;99.90;;;;;;5111937;28;19924;-71
2024/01/29 14:22:41;;;;;;;;;;;8.80;99.90;;;;;;5111728;28;19931;-71